createdAt,value
2023-04-25T00:00:53.575Z,91242.25
2023-04-25T00:03:22.177Z,91243.72
2023-04-25T00:05:50.113Z,91237.06
2023-04-25T00:08:16.820Z,91241.31
2023-04-25T00:10:43.360Z,91234.31
2023-04-25T00:13:12.429Z,91228.25
2023-04-25T00:15:39.811Z,91230.81
2023-04-25T00:18:07.386Z,91235.63
2023-04-25T00:20:33.993Z,91234.16
2023-04-25T00:23:00.745Z,91234.91
2023-04-25T00:25:27.329Z,91235.63
2023-04-25T00:27:53.802Z,91235.63
2023-04-25T00:30:20.453Z,91230.13
2023-04-25T00:32:47.100Z,91228.66
2023-04-25T00:35:13.672Z,91224.28
2023-04-25T00:37:40.164Z,91222.09
2023-04-25T00:40:08.790Z,91219.91
2023-04-25T00:42:37.844Z,91214.41
2023-04-25T00:45:08.214Z,91207.44
2023-04-25T00:47:36.900Z,91208.00
2023-04-25T00:50:03.926Z,91208.56
2023-04-25T00:52:30.719Z,91208.56
2023-04-25T00:54:57.265Z,91214.09
2023-04-25T00:57:23.810Z,91209.84
2023-04-25T00:59:52.746Z,91214.09
2023-04-25T01:02:21.872Z,91214.09
2023-04-25T01:04:49.304Z,91218.13
2023-04-25T01:07:16.790Z,91212.63
2023-04-25T01:09:43.363Z,91205.66
2023-04-25T01:12:10.034Z,91211.16
2023-04-25T01:14:36.705Z,91210.59
2023-04-25T01:17:03.468Z,91217.41
2023-04-25T01:19:30.256Z,91222.19
2023-04-25T01:21:56.802Z,91225.50
2023-04-25T01:24:23.705Z,91222.19
2023-04-25T01:26:51.382Z,91223.50
2023-04-25T01:29:19.857Z,91219.25
2023-04-25T01:31:46.863Z,91221.16
2023-04-25T01:34:14.246Z,91223.31
2023-04-25T01:36:41.486Z,91224.03
2023-04-25T01:39:08.246Z,91223.31
2023-04-25T01:41:37.770Z,91225.91
2023-04-25T01:44:04.668Z,91227.38
2023-04-25T01:46:31.831Z,91227.94
2023-04-25T01:48:58.383Z,91224.44
2023-04-25T01:51:24.943Z,91224.44
2023-04-25T01:53:52.314Z,91228.66
2023-04-25T01:56:20.047Z,91229.94
2023-04-25T01:58:46.742Z,91224.81
2023-04-25T02:01:13.506Z,91217.88
2023-04-25T02:03:40.346Z,91217.13
2023-04-25T02:06:07.039Z,91221.38
2023-04-25T02:08:33.545Z,91224.69
2023-04-25T02:11:00.033Z,91226.69
2023-04-25T02:13:26.603Z,91229.63
2023-04-25T02:15:54.379Z,91225.41
2023-04-25T02:18:22.227Z,91221.19
2023-04-25T02:20:48.713Z,91227.03
2023-04-25T02:23:16.435Z,91223.16
2023-04-25T02:25:43.096Z,91228.66
2023-04-25T02:28:09.643Z,91234.34
2023-04-25T02:30:36.397Z,91238.53
2023-04-25T02:33:03.142Z,91246.81
2023-04-25T02:35:29.737Z,91239.84
2023-04-25T02:37:56.250Z,91243.31
2023-04-25T02:40:23.165Z,91235.47
2023-04-25T02:42:49.685Z,91238.06
2023-04-25T02:45:16.280Z,91243.56
2023-04-25T02:47:42.850Z,91245.41
2023-04-25T02:50:09.609Z,91249.47
2023-04-25T02:52:36.379Z,91241.03
2023-04-25T02:55:02.991Z,91236.25
2023-04-25T02:57:29.510Z,91241.03
2023-04-25T02:59:55.986Z,91247.09
2023-04-25T03:02:22.606Z,91248.41
2023-04-25T03:04:49.212Z,91242.16
2023-04-25T03:07:15.778Z,91246.78
2023-04-25T03:09:42.290Z,91241.28
2023-04-25T03:12:08.784Z,91241.28
2023-04-25T03:14:35.276Z,91242.56
2023-04-25T03:17:01.924Z,91238.53
2023-04-25T03:19:28.568Z,91237.06
2023-04-25T03:21:55.071Z,91239.81
2023-04-25T03:24:22.938Z,91231.38
2023-04-25T03:26:49.307Z,91230.09
2023-04-25T03:29:15.782Z,91231.38
2023-04-25T03:31:42.436Z,91231.25
2023-04-25T03:34:08.946Z,91236.59
2023-04-25T03:36:35.521Z,91228.91
2023-04-25T03:39:02.032Z,91226.84
2023-04-25T03:41:29.155Z,91222.81
2023-04-25T03:43:55.672Z,91230.34
2023-04-25T03:46:22.214Z,91231.66
2023-04-25T03:48:48.839Z,91229.44
2023-04-25T03:51:15.344Z,91230.19
2023-04-25T03:53:41.842Z,91225.97
2023-04-25T03:56:08.403Z,91236.25
2023-04-25T03:58:34.933Z,91227.25
2023-04-25T04:01:03.953Z,91221.75
2023-04-25T04:03:30.718Z,91222.88
2023-04-25T04:05:57.454Z,91216.81
2023-04-25T04:08:23.986Z,91212.63
2023-04-25T04:10:50.446Z,91219.22
2023-04-25T04:13:16.950Z,91214.47
2023-04-25T04:15:43.489Z,91213.72
2023-04-25T04:18:10.059Z,91217.97
2023-04-25T04:20:36.605Z,91213.72
2023-04-25T04:23:03.144Z,91214.28
2023-04-25T04:25:29.760Z,91215.19
2023-04-25T04:27:56.267Z,91213.03
2023-04-25T04:30:26.446Z,91217.78
2023-04-25T04:32:53.137Z,91213.56
2023-04-25T04:35:19.824Z,91216.31
2023-04-25T04:37:46.841Z,91209.38
2023-04-25T04:40:16.486Z,91206.78
2023-04-25T04:42:43.980Z,91192.44
2023-04-25T04:45:11.252Z,91194.63
2023-04-25T04:47:38.334Z,91202.88
2023-04-25T04:50:05.230Z,91209.88
2023-04-25T04:52:31.937Z,91203.06
2023-04-25T04:54:58.528Z,91201.19
2023-04-25T04:57:25.053Z,91204.66
2023-04-25T04:59:52.067Z,91209.47
2023-04-25T05:02:18.768Z,91211.13
2023-04-25T05:04:46.131Z,91219.22
2023-04-25T05:07:12.692Z,91220.72
2023-04-25T05:09:39.353Z,91211.72
2023-04-25T05:12:06.272Z,91198.69
2023-04-25T05:14:32.812Z,91202.00
2023-04-25T05:16:59.539Z,91201.28
2023-04-25T05:19:26.376Z,91192.03
2023-04-25T05:21:53.155Z,91196.09
2023-04-25T05:24:19.670Z,91191.69
2023-04-25T05:26:46.256Z,91194.28
2023-04-25T05:29:12.743Z,91202.00
2023-04-25T05:31:39.449Z,91191.00
2023-04-25T05:34:05.986Z,91195.19
2023-04-25T05:36:33.471Z,91185.91
2023-04-25T05:38:59.987Z,91181.44
2023-04-25T05:41:26.476Z,91181.44
2023-04-25T05:43:54.732Z,91172.44
2023-04-25T05:46:22.916Z,91174.88
2023-04-25T05:48:49.491Z,91177.06
2023-04-25T05:51:16.065Z,91175.59
2023-04-25T05:53:42.764Z,91173.75
2023-04-25T05:56:09.307Z,91167.34
2023-04-25T05:58:36.192Z,91173.41
2023-04-25T06:01:03.621Z,91167.34
2023-04-25T06:03:31.177Z,91160.97
2023-04-25T06:05:57.997Z,91166.47
2023-04-25T06:08:24.575Z,91158.22
2023-04-25T06:10:51.119Z,91153.97
2023-04-25T06:13:17.595Z,91158.03
2023-04-25T06:15:44.182Z,91155.44
2023-04-25T06:18:10.922Z,91159.47
2023-04-25T06:20:37.478Z,91152.69
2023-04-25T06:23:03.958Z,91158.03
2023-04-25T06:25:30.476Z,91160.97
2023-04-25T06:27:57.032Z,91151.22
2023-04-25T06:30:26.625Z,91144.44
2023-04-25T06:32:54.177Z,91144.44
2023-04-25T06:35:21.216Z,91150.66
2023-04-25T06:37:48.160Z,91141.13
2023-04-25T06:40:14.759Z,91130.97
2023-04-25T06:42:41.273Z,91128.38
2023-04-25T06:45:08.444Z,91131.16
2023-04-25T06:47:34.953Z,91132.63
2023-04-25T06:50:01.586Z,91123.38
2023-04-25T06:52:28.156Z,91134.38
2023-04-25T06:54:54.692Z,91128.16
2023-04-25T06:57:21.185Z,91126.13
2023-04-25T06:59:47.691Z,91119.19
2023-04-25T07:02:17.461Z,91115.28
2023-04-25T07:04:44.175Z,91118.50
2023-04-25T07:07:10.715Z,91113.78
2023-04-25T07:09:37.243Z,91115.41
2023-04-25T07:12:04.416Z,91113.56
2023-04-25T07:14:31.002Z,91115.59
2023-04-25T07:16:58.113Z,91117.19
2023-04-25T07:19:27.862Z,91115.03
2023-04-25T07:21:54.682Z,91115.75
2023-04-25T07:24:21.258Z,91113.56
2023-04-25T07:26:47.991Z,91111.38
2023-04-25T07:29:14.504Z,91116.72
2023-04-25T07:31:41.475Z,91112.50
2023-04-25T07:34:08.389Z,91111.03
2023-04-25T07:36:35.275Z,91117.84
2023-04-25T07:39:01.981Z,91120.59
2023-04-25T07:41:28.759Z,91112.50
2023-04-25T07:43:55.294Z,91115.41
2023-04-25T07:46:21.886Z,91103.66
2023-04-25T07:48:48.576Z,91103.25
2023-04-25T07:51:15.361Z,91104.75
2023-04-25T07:53:41.940Z,91107.66
2023-04-25T07:56:09.146Z,91100.84
2023-04-25T07:58:35.755Z,91105.75
2023-04-25T08:01:02.298Z,91101.00
2023-04-25T08:03:28.970Z,91093.47
2023-04-25T08:05:55.751Z,91094.03
2023-04-25T08:08:22.693Z,91103.16
2023-04-25T08:10:49.586Z,91095.31
2023-04-25T08:13:16.481Z,91100.09
2023-04-25T08:15:43.108Z,91098.06
2023-04-25T08:18:09.846Z,91094.03
2023-04-25T08:20:36.780Z,91093.31
2023-04-25T08:23:03.347Z,91085.63
2023-04-25T08:25:29.878Z,91091.13
2023-04-25T08:27:57.116Z,91088.94
2023-04-25T08:30:23.773Z,91086.31
2023-04-25T08:32:50.489Z,91080.09
2023-04-25T08:35:18.606Z,91081.56
2023-04-25T08:37:45.140Z,91071.69
2023-04-25T08:40:15.230Z,91076.63
2023-04-25T08:42:43.096Z,91075.31
2023-04-25T08:45:10.161Z,91078.63
2023-04-25T08:47:38.987Z,91075.31
2023-04-25T08:50:07.158Z,91068.34
2023-04-25T08:52:45.814Z,91067.63
2023-04-25T08:55:14.955Z,91074.59
2023-04-25T08:57:45.698Z,91072.97
2023-04-25T09:00:13.833Z,91067.63
2023-04-25T09:02:41.355Z,91070.38
2023-04-25T09:05:10.890Z,91068.00
2023-04-25T09:07:37.439Z,91067.47
2023-04-25T09:10:04.497Z,91066.34
2023-04-25T09:12:31.695Z,91069.09
2023-04-25T09:15:06.807Z,91070.53
2023-04-25T09:17:33.458Z,91072.00
2023-04-25T09:20:09.151Z,91075.47
2023-04-25T09:22:36.946Z,91071.44
2023-04-25T09:25:08.979Z,91077.38
2023-04-25T09:27:35.858Z,91078.53
2023-04-25T09:30:02.977Z,91075.81
2023-04-25T09:32:29.598Z,91085.09
2023-04-25T09:34:57.953Z,91080.91
2023-04-25T09:37:27.142Z,91090.19
2023-04-25T09:40:03.416Z,91087.25
2023-04-25T09:42:32.440Z,91088.38
2023-04-25T09:45:00.025Z,91089.56
2023-04-25T09:47:27.814Z,91089.38
2023-04-25T09:49:56.028Z,91087.38
2023-04-25T09:52:25.841Z,91092.88
2023-04-25T09:54:53.317Z,91092.00
2023-04-25T09:57:25.257Z,91098.81
2023-04-25T09:59:56.268Z,91090.38
2023-04-25T10:02:26.469Z,91099.97
2023-04-25T10:04:56.216Z,91095.00
2023-04-25T10:07:27.098Z,91103.69
2023-04-25T10:10:03.846Z,91104.25
2023-04-25T10:12:32.254Z,91095.84
2023-04-25T10:14:59.529Z,91100.81
2023-04-25T10:17:30.896Z,91105.00
2023-04-25T10:19:57.707Z,91104.84
2023-04-25T10:22:33.972Z,91104.84
2023-04-25T10:25:02.058Z,91099.50
2023-04-25T10:27:29.093Z,91097.16
2023-04-25T10:30:21.601Z,91093.81
2023-04-25T10:32:49.223Z,91107.03
2023-04-25T10:35:31.075Z,91107.75
2023-04-25T10:38:17.845Z,91104.84
2023-04-25T10:41:04.034Z,91106.00
2023-04-25T10:43:40.858Z,91108.59
2023-04-25T10:46:31.717Z,91115.53
2023-04-25T10:49:00.160Z,91114.84
2023-04-25T10:51:40.108Z,91118.28
2023-04-25T10:54:10.592Z,91111.50
2023-04-25T10:56:37.049Z,91113.53
2023-04-25T10:59:12.117Z,91123.81
2023-04-25T11:01:45.382Z,91121.06
2023-04-25T11:04:32.469Z,91120.19
2023-04-25T11:07:07.179Z,91119.28
2023-04-25T11:09:40.160Z,91130.31
2023-04-25T11:12:08.959Z,91139.13
2023-04-25T11:14:35.763Z,91138.41
2023-04-25T11:17:03.737Z,91135.66
2023-04-25T11:19:31.219Z,91131.44
2023-04-25T11:22:02.009Z,91131.44
2023-04-25T11:24:32.826Z,91125.22
2023-04-25T11:27:04.022Z,91113.44
2023-04-25T11:29:31.783Z,91114.19
2023-04-25T11:31:59.365Z,91132.72
2023-04-25T11:34:26.716Z,91131.28
2023-04-25T11:36:54.227Z,91127.81
2023-04-25T11:39:21.480Z,91120.28
2023-04-25T11:41:48.324Z,91126.69
2023-04-25T11:44:18.701Z,91119.28
2023-04-25T11:46:46.149Z,91120.03
2023-04-25T11:49:13.568Z,91129.19
2023-04-25T11:51:47.509Z,91125.44
2023-04-25T11:54:14.125Z,91116.59
2023-04-25T11:56:45.176Z,91119.50
2023-04-25T11:59:12.658Z,91125.72
2023-04-25T12:01:48.676Z,91121.69
2023-04-25T12:04:24.095Z,91127.63
2023-04-25T12:06:53.774Z,91130.94
2023-04-25T12:09:31.935Z,91134.97
2023-04-25T12:11:59.988Z,91134.81
2023-04-25T12:14:28.696Z,91144.25
2023-04-25T12:17:00.449Z,91134.53
2023-04-25T12:19:33.224Z,91133.06
2023-04-25T12:22:01.824Z,91128.84
2023-04-25T12:24:28.920Z,91131.78
2023-04-25T12:27:07.239Z,91127.72
2023-04-25T12:29:48.556Z,91127.72
2023-04-25T12:32:16.617Z,91118.16
2023-04-25T12:34:43.308Z,91118.16
2023-04-25T12:37:10.512Z,91113.34
2023-04-25T12:39:37.036Z,91118.16
2023-04-25T12:42:05.582Z,91110.03
2023-04-25T12:44:33.483Z,91111.50
2023-04-25T12:47:00.912Z,91114.25
2023-04-25T12:49:27.657Z,91114.09
2023-04-25T12:51:54.328Z,91108.59
2023-04-25T12:54:20.830Z,91105.84
2023-04-25T12:56:47.409Z,91105.66
2023-04-25T12:59:13.929Z,91125.84
2023-04-25T13:01:40.647Z,91120.91
2023-04-25T13:04:07.569Z,91129.19
2023-04-25T13:06:34.297Z,91122.19
2023-04-25T13:09:01.379Z,91123.66
2023-04-25T13:11:28.021Z,91125.84
2023-04-25T13:13:54.902Z,91124.38
2023-04-25T13:16:24.080Z,91132.06
2023-04-25T13:18:50.871Z,91126.56
2023-04-25T13:21:17.511Z,91147.16
2023-04-25T13:23:45.614Z,91170.50
2023-04-25T13:26:12.300Z,91188.31
2023-04-25T13:28:38.878Z,91200.47
2023-04-25T13:31:06.360Z,91223.78
2023-04-25T13:33:32.880Z,91228.44
2023-04-25T13:36:02.302Z,91229.13
2023-04-25T13:38:28.829Z,91238.72
2023-04-25T13:40:56.782Z,91249.22
2023-04-25T13:43:23.540Z,91242.09
2023-04-25T13:45:51.710Z,91239.97
2023-04-25T13:48:19.788Z,91247.44
2023-04-25T13:50:46.705Z,91238.44
2023-04-25T13:53:13.457Z,91237.75
2023-04-25T13:55:40.066Z,91232.25
2023-04-25T13:58:11.006Z,91231.78
2023-04-25T14:00:44.173Z,91231.84
2023-04-25T14:03:11.025Z,91226.34
2023-04-25T14:05:41.204Z,91222.97
2023-04-25T14:08:10.282Z,91215.53
2023-04-25T14:10:37.885Z,91216.16
2023-04-25T14:13:05.547Z,91214.63
2023-04-25T14:15:35.765Z,91213.09
2023-04-25T14:18:02.672Z,91214.75
2023-04-25T14:20:29.751Z,91213.75
2023-04-25T14:22:58.140Z,91212.63
2023-04-25T14:25:25.432Z,91218.84
2023-04-25T14:27:52.138Z,91214.66
2023-04-25T14:30:20.177Z,91219.09
2023-04-25T14:32:47.202Z,91231.31
2023-04-25T14:35:14.055Z,91230.91
2023-04-25T14:37:40.982Z,91244.66
2023-04-25T14:40:13.009Z,91255.84
2023-04-25T14:42:40.958Z,91260.88
2023-04-25T14:45:08.406Z,91279.75
2023-04-25T14:47:36.149Z,91284.69
2023-04-25T14:50:03.267Z,91280.84
2023-04-25T14:52:30.061Z,91290.53
2023-04-25T14:54:56.777Z,91290.38
2023-04-25T14:57:23.494Z,91277.50
2023-04-25T14:59:50.172Z,91282.44
2023-04-25T15:02:16.848Z,91282.44
2023-04-25T15:04:43.719Z,91281.00
2023-04-25T15:07:10.413Z,91297.53
2023-04-25T15:09:36.903Z,91299.72
2023-04-25T15:12:03.632Z,91297.53
2023-04-25T15:14:30.264Z,91301.72
2023-04-25T15:16:56.808Z,91307.81
2023-04-25T15:19:23.332Z,91314.44
2023-04-25T15:21:49.998Z,91319.19
2023-04-25T15:24:17.188Z,91317.75
2023-04-25T15:26:43.727Z,91325.84
2023-04-25T15:29:10.970Z,91336.84
2023-04-25T15:31:37.464Z,91339.63
2023-04-25T15:34:04.303Z,91344.94
2023-04-25T15:36:32.152Z,91358.72
2023-04-25T15:38:58.551Z,91369.56
2023-04-25T15:41:26.407Z,91367.38
2023-04-25T15:43:53.495Z,91375.47
2023-04-25T15:46:21.068Z,91381.72
2023-04-25T15:48:47.876Z,91388.31
2023-04-25T15:51:14.709Z,91385.44
2023-04-25T15:53:41.219Z,91378.44
2023-04-25T15:56:07.754Z,91381.78
2023-04-25T15:58:34.392Z,91385.44
2023-04-25T16:01:00.929Z,91396.44
2023-04-25T16:03:27.630Z,91390.94
2023-04-25T16:05:54.748Z,91390.19
2023-04-25T16:08:21.329Z,91396.44
2023-04-25T16:10:48.390Z,91388.00
2023-04-25T16:13:15.000Z,91387.28
2023-04-25T16:15:41.512Z,91396.09
2023-04-25T16:18:08.382Z,91389.28
2023-04-25T16:20:35.006Z,91392.03
2023-04-25T16:23:01.681Z,91401.59
2023-04-25T16:25:28.377Z,91396.09
2023-04-25T16:27:54.944Z,91400.13
2023-04-25T16:30:21.495Z,91393.53
2023-04-25T16:32:48.078Z,91389.28
2023-04-25T16:35:14.992Z,91400.47
2023-04-25T16:37:41.491Z,91392.03
2023-04-25T16:40:09.999Z,91395.72
2023-04-25T16:42:36.777Z,91390.94
2023-04-25T16:45:05.079Z,91395.72
2023-04-25T16:47:32.348Z,91392.38
2023-04-25T16:50:00.569Z,91397.31
2023-04-25T16:52:27.158Z,91400.47
2023-04-25T16:54:53.654Z,91401.38
2023-04-25T16:57:21.145Z,91403.22
2023-04-25T16:59:47.931Z,91412.97
2023-04-25T17:02:15.417Z,91417.00
2023-04-25T17:04:42.054Z,91421.06
2023-04-25T17:07:09.352Z,91415.53
2023-04-25T17:09:36.233Z,91419.56
2023-04-25T17:12:04.142Z,91430.59
2023-04-25T17:14:32.399Z,91433.34
2023-04-25T17:16:59.110Z,91440.16
2023-04-25T17:19:26.184Z,91445.66
2023-04-25T17:21:52.868Z,91445.66
2023-04-25T17:24:21.758Z,91451.16
2023-04-25T17:26:49.011Z,91455.38
2023-04-25T17:29:15.900Z,91451.91
2023-04-25T17:31:42.831Z,91463.63
2023-04-25T17:34:09.894Z,91464.94
2023-04-25T17:36:36.529Z,91473.19
2023-04-25T17:39:05.958Z,91462.19
2023-04-25T17:41:32.456Z,91470.25
2023-04-25T17:43:58.965Z,91471.72
2023-04-25T17:46:26.791Z,91475.03
2023-04-25T17:48:53.593Z,91474.31
2023-04-25T17:51:20.418Z,91479.81
2023-04-25T17:53:46.960Z,91479.81
2023-04-25T17:56:25.815Z,91485.34
2023-04-25T17:58:54.344Z,91494.88
2023-04-25T18:01:21.383Z,91487.91
2023-04-25T18:03:49.980Z,91493.41
2023-04-25T18:06:18.062Z,91500.38
2023-04-25T18:08:44.967Z,91498.94
2023-04-25T18:11:12.198Z,91505.88
2023-04-25T18:13:39.459Z,91519.47
2023-04-25T18:16:06.715Z,91527.56
2023-04-25T18:18:36.114Z,91523.91
2023-04-25T18:21:05.431Z,91532.72
2023-04-25T18:23:34.184Z,91535.31
2023-04-25T18:26:02.314Z,91546.31
2023-04-25T18:28:29.292Z,91553.09
2023-04-25T18:30:56.715Z,91558.59
2023-04-25T18:33:23.594Z,91566.88
2023-04-25T18:35:58.756Z,91572.38
2023-04-25T18:38:49.672Z,91573.66
2023-04-25T18:41:34.426Z,91581.94
2023-04-25T18:44:02.473Z,91588.88
2023-04-25T18:46:29.919Z,91588.69
2023-04-25T18:48:56.634Z,91598.44
2023-04-25T18:51:24.804Z,91605.06
2023-04-25T18:53:52.127Z,91621.59
2023-04-25T18:56:21.022Z,91618.84
2023-04-25T18:58:47.498Z,91621.72
2023-04-25T19:01:14.272Z,91627.81
2023-04-25T19:03:41.157Z,91629.28
2023-04-25T19:06:08.442Z,91632.59
2023-04-25T19:08:34.936Z,91629.84
2023-04-25T19:11:10.788Z,91626.53
2023-04-25T19:13:47.706Z,91631.47
2023-04-25T19:16:14.902Z,91634.22
2023-04-25T19:18:41.529Z,91634.03
2023-04-25T19:21:08.573Z,91625.22
2023-04-25T19:23:35.556Z,91636.06
2023-04-25T19:26:03.500Z,91631.28
2023-04-25T19:28:30.587Z,91624.16
2023-04-25T19:30:59.518Z,91631.13
2023-04-25T19:33:26.060Z,91638.81
2023-04-25T19:35:52.700Z,91633.69
2023-04-25T19:38:19.193Z,91629.66
2023-04-25T19:40:45.827Z,91632.41
2023-04-25T19:43:12.771Z,91623.41
2023-04-25T19:45:39.352Z,91639.19
2023-04-25T19:48:06.888Z,91639.94
2023-04-25T19:50:33.539Z,91639.19
2023-04-25T19:53:00.132Z,91637.34
2023-04-25T19:55:26.858Z,91643.97
2023-04-25T19:57:53.627Z,91648.75
2023-04-25T20:00:21.486Z,91647.25
2023-04-25T20:02:48.447Z,91645.06
2023-04-25T20:05:16.670Z,91645.44
2023-04-25T20:07:43.375Z,91657.00
2023-04-25T20:10:13.680Z,91666.34
2023-04-25T20:12:40.478Z,91662.13
2023-04-25T20:15:08.984Z,91666.19
2023-04-25T20:17:36.092Z,91667.47
2023-04-25T20:20:04.134Z,91677.03
2023-04-25T20:22:36.078Z,91679.94
2023-04-25T20:25:08.078Z,91679.03
2023-04-25T20:27:34.855Z,91677.72
2023-04-25T20:30:05.097Z,91678.28
2023-04-25T20:32:34.596Z,91675.53
2023-04-25T20:35:03.948Z,91675.53
2023-04-25T20:37:31.736Z,91681.03
2023-04-25T20:40:03.824Z,91678.28
2023-04-25T20:42:32.030Z,91687.84
2023-04-25T20:44:58.640Z,91685.09
2023-04-25T20:47:25.455Z,91683.59
2023-04-25T20:49:52.306Z,91682.16
2023-04-25T20:52:18.866Z,91687.84
2023-04-25T20:54:50.312Z,91690.59
2023-04-25T20:57:17.565Z,91685.09
2023-04-25T20:59:44.790Z,91683.09
2023-04-25T21:02:14.755Z,91679.78
2023-04-25T21:04:44.164Z,91680.31
2023-04-25T21:07:15.042Z,91677.03
2023-04-25T21:09:42.898Z,91681.78
2023-04-25T21:12:09.281Z,91683.59
2023-04-25T21:14:35.823Z,91683.78
2023-04-25T21:17:04.393Z,91674.81
2023-04-25T21:19:31.488Z,91672.59
2023-04-25T21:21:58.384Z,91679.41
2023-04-25T21:24:26.942Z,91674.47
2023-04-25T21:26:53.535Z,91672.59
2023-04-25T21:29:20.028Z,91668.59
2023-04-25T21:31:46.733Z,91671.50
2023-04-25T21:34:13.372Z,91671.69
2023-04-25T21:36:41.290Z,91671.50
2023-04-25T21:39:07.992Z,91677.72
2023-04-25T21:41:34.549Z,91666.72
2023-04-25T21:44:01.119Z,91666.00
2023-04-25T21:46:27.666Z,91668.59
2023-04-25T21:48:54.733Z,91670.59
2023-04-25T21:51:22.131Z,91666.75
2023-04-25T21:53:48.637Z,91663.44
2023-04-25T21:56:15.222Z,91668.22
2023-04-25T21:58:41.719Z,91675.19
2023-04-25T22:01:08.588Z,91675.19
2023-04-25T22:03:35.518Z,91683.28
2023-04-25T22:06:03.871Z,91681.06
2023-04-25T22:08:30.403Z,91680.34
2023-04-25T22:10:57.165Z,91686.94
2023-04-25T22:13:23.870Z,91690.97
2023-04-25T22:15:50.839Z,91691.72
2023-04-25T22:18:17.950Z,91696.47
2023-04-25T22:20:44.911Z,91704.00
2023-04-25T22:23:12.170Z,91693.72
2023-04-25T22:25:38.919Z,91692.63
2023-04-25T22:28:05.576Z,91689.16
2023-04-25T22:30:32.704Z,91688.41
2023-04-25T22:32:59.315Z,91688.03
2023-04-25T22:35:25.965Z,91689.53
2023-04-25T22:37:52.988Z,91682.53
2023-04-25T22:40:19.578Z,91689.53
2023-04-25T22:42:46.117Z,91695.03
2023-04-25T22:45:12.839Z,91698.50
2023-04-25T22:47:40.141Z,91698.34
2023-04-25T22:50:12.541Z,91703.28
2023-04-25T22:52:39.508Z,91701.97
2023-04-25T22:55:06.825Z,91690.97
2023-04-25T22:57:33.364Z,91700.53
2023-04-25T22:59:59.894Z,91704.91
2023-04-25T23:02:27.455Z,91704.19
2023-04-25T23:04:54.996Z,91711.16
2023-04-25T23:07:21.723Z,91705.84
2023-04-25T23:09:48.249Z,91701.59
2023-04-25T23:12:18.535Z,91703.84
2023-04-25T23:14:49.396Z,91703.84
2023-04-25T23:17:16.215Z,91715.19
2023-04-25T23:19:42.732Z,91713.72
2023-04-25T23:22:09.488Z,91711.16
2023-04-25T23:24:39.141Z,91709.88
2023-04-25T23:27:05.714Z,91711.16
2023-04-25T23:29:34.011Z,91711.16
2023-04-25T23:32:03.749Z,91715.91
2023-04-25T23:34:34.289Z,91714.84
2023-04-25T23:37:01.550Z,91703.84
2023-04-25T23:39:28.315Z,91698.88
2023-04-25T23:41:54.930Z,91706.41
2023-04-25T23:44:22.212Z,91709.88
2023-04-25T23:46:49.007Z,91712.28
2023-04-25T23:49:15.536Z,91712.44
2023-04-25T23:51:42.297Z,91707.84
2023-04-25T23:54:08.812Z,91714.28
2023-04-25T23:56:35.317Z,91713.00
2023-04-25T23:59:02.020Z,91711.72
